createdAt,value
2024-03-12T00:00:29.896Z,2.70
2024-03-12T00:02:57.708Z,5.75
2024-03-12T00:05:25.534Z,3.17
2024-03-12T00:07:53.249Z,5.95
2024-03-12T00:10:21.328Z,2.92
2024-03-12T00:12:52.902Z,2.13
2024-03-12T00:15:22.770Z,2.58
2024-03-12T00:17:51.824Z,2.28
2024-03-12T00:20:25.295Z,3.10
2024-03-12T00:22:53.924Z,4.05
2024-03-12T00:25:22.211Z,3.88
2024-03-12T00:30:20.923Z,4.10
2024-03-12T00:32:50.374Z,5.10
2024-03-12T00:35:18.127Z,4.07
2024-03-12T00:37:48.088Z,4.82
2024-03-12T00:40:17.884Z,4.97
2024-03-12T00:42:46.053Z,3.10
2024-03-12T00:45:26.381Z,3.83
2024-03-12T00:47:55.021Z,5.05
2024-03-12T00:50:24.685Z,3.72
2024-03-12T00:52:54.290Z,2.80
2024-03-12T00:55:22.175Z,3.60
2024-03-12T00:57:51.235Z,2.92
2024-03-12T01:00:26.487Z,6.80
2024-03-12T01:02:55.858Z,4.95
2024-03-12T01:05:25.633Z,3.20
2024-03-12T01:07:54.692Z,9.35
2024-03-12T01:10:22.934Z,7.72
2024-03-12T01:15:20.804Z,4.95
2024-03-12T01:17:49.673Z,4.78
2024-03-12T01:20:20.169Z,5.65
2024-03-12T01:22:48.063Z,3.58
2024-03-12T01:25:16.368Z,3.28
2024-03-12T01:30:17.452Z,3.22
2024-03-12T01:32:47.166Z,4.55
2024-03-12T01:35:15.261Z,3.10
2024-03-12T01:37:44.510Z,6.35
2024-03-12T01:40:22.819Z,4.10
2024-03-12T01:42:51.524Z,5.32
2024-03-12T01:45:21.918Z,8.98
2024-03-12T01:47:52.018Z,3.88
2024-03-12T01:50:20.208Z,3.15
2024-03-12T01:52:48.271Z,3.65
2024-03-12T01:55:17.625Z,3.17
2024-03-12T01:57:47.350Z,4.40
2024-03-12T02:00:16.092Z,3.33
2024-03-12T02:02:44.864Z,3.00
2024-03-12T02:05:14.532Z,4.50
2024-03-12T02:07:46.726Z,3.00
2024-03-12T02:10:15.388Z,2.72
2024-03-12T02:12:45.237Z,4.70
2024-03-12T02:15:13.817Z,5.93
2024-03-12T02:17:42.064Z,4.68
2024-03-12T02:20:10.915Z,3.95
2024-03-12T02:22:40.022Z,3.72
2024-03-12T02:25:11.674Z,4.82
2024-03-12T02:27:40.938Z,4.70
2024-03-12T02:30:11.228Z,3.08
2024-03-12T02:32:40.447Z,3.55
2024-03-12T02:35:11.278Z,4.00
2024-03-12T02:37:40.088Z,3.55
2024-03-12T02:40:14.638Z,4.45
2024-03-12T02:42:43.629Z,4.85
2024-03-12T02:45:15.635Z,5.13
2024-03-12T02:47:44.220Z,5.65
2024-03-12T02:50:12.857Z,3.67
2024-03-12T02:52:42.802Z,4.03
2024-03-12T02:55:11.974Z,3.85
2024-03-12T02:57:39.600Z,3.15
2024-03-12T03:00:12.701Z,3.42
2024-03-12T03:02:40.764Z,4.10
2024-03-12T03:05:11.055Z,3.97
2024-03-12T03:07:38.949Z,6.20
2024-03-12T03:10:07.470Z,3.42
2024-03-12T03:12:36.557Z,3.75
2024-03-12T03:15:05.021Z,5.45
2024-03-12T03:17:32.634Z,3.97
2024-03-12T03:20:00.192Z,2.80
2024-03-12T03:22:29.063Z,2.92
2024-03-12T03:24:56.717Z,3.33
2024-03-12T03:27:24.825Z,3.53
2024-03-12T03:29:57.863Z,3.95
2024-03-12T03:32:25.415Z,4.28
2024-03-12T03:34:53.599Z,3.80
2024-03-12T03:37:21.778Z,5.03
2024-03-12T03:39:49.526Z,4.68
2024-03-12T03:42:17.282Z,3.70
2024-03-12T03:44:44.791Z,3.30
2024-03-12T03:47:13.853Z,4.07
2024-03-12T03:49:41.393Z,4.22
2024-03-12T03:52:09.008Z,4.43
2024-03-12T03:54:37.198Z,4.43
2024-03-12T03:57:04.789Z,5.07
2024-03-12T03:59:32.352Z,3.92
2024-03-12T04:02:00.415Z,4.13
2024-03-12T04:04:28.335Z,4.90
2024-03-12T04:06:56.042Z,3.70
2024-03-12T04:09:23.856Z,4.75
2024-03-12T04:11:51.400Z,3.13
2024-03-12T04:14:19.714Z,5.60
2024-03-12T04:19:15.037Z,4.22
2024-03-12T04:21:44.950Z,3.03
2024-03-12T04:24:14.733Z,4.13
2024-03-12T04:26:42.328Z,4.70
2024-03-12T04:29:11.420Z,3.90
2024-03-12T04:31:40.704Z,4.50
2024-03-12T04:34:09.739Z,7.15
2024-03-12T04:36:37.778Z,7.22
2024-03-12T04:39:32.774Z,6.13
2024-03-12T04:42:02.956Z,4.90
2024-03-12T04:44:30.903Z,4.95
2024-03-12T04:46:58.441Z,4.60
2024-03-12T04:49:26.192Z,5.20
2024-03-12T04:51:54.257Z,5.85
2024-03-12T04:54:23.338Z,6.00
2024-03-12T04:56:51.814Z,5.60
2024-03-12T04:59:19.446Z,5.72
2024-03-12T05:01:49.448Z,4.97
2024-03-12T05:04:22.552Z,4.32
2024-03-12T05:06:51.709Z,4.05
2024-03-12T05:09:19.624Z,5.15
2024-03-12T05:11:49.234Z,6.85
2024-03-12T05:14:17.575Z,3.95
2024-03-12T05:19:13.144Z,7.82
2024-03-12T05:21:41.077Z,7.63
2024-03-12T05:24:08.779Z,4.15
2024-03-12T05:26:44.961Z,5.63
2024-03-12T05:29:14.141Z,7.97
2024-03-12T05:31:41.959Z,6.75
2024-03-12T05:34:17.177Z,6.05
2024-03-12T05:36:49.408Z,4.78
2024-03-12T05:39:21.742Z,6.60
2024-03-12T05:42:11.086Z,3.83
2024-03-12T05:44:57.856Z,4.80
2024-03-12T05:47:44.692Z,4.68
2024-03-12T05:50:13.064Z,4.88
2024-03-12T05:55:08.872Z,6.32
2024-03-12T05:57:36.944Z,5.70
2024-03-12T06:00:07.938Z,4.93
2024-03-12T06:02:35.429Z,5.07
2024-03-12T06:05:02.934Z,4.25
2024-03-12T06:07:30.454Z,5.35
2024-03-12T06:09:58.030Z,4.85
2024-03-12T06:12:25.685Z,4.55
2024-03-12T06:14:53.408Z,4.57
2024-03-12T06:17:22.459Z,5.47
2024-03-12T06:19:50.149Z,4.60
2024-03-12T06:22:18.214Z,5.93
2024-03-12T06:24:49.178Z,5.25
2024-03-12T06:27:19.275Z,4.70
2024-03-12T06:29:50.654Z,4.85
2024-03-12T06:32:20.491Z,3.70
2024-03-12T06:34:49.942Z,5.97
2024-03-12T06:37:17.692Z,5.47
2024-03-12T06:39:45.979Z,5.07
2024-03-12T06:42:14.238Z,5.82
2024-03-12T06:44:44.878Z,5.28
2024-03-12T06:47:12.638Z,4.00
2024-03-12T06:49:45.375Z,7.43
2024-03-12T06:52:14.722Z,4.93
2024-03-12T06:54:42.460Z,3.67
2024-03-12T06:57:12.088Z,8.35
2024-03-12T06:59:41.285Z,6.13
2024-03-12T07:02:09.901Z,6.28
2024-03-12T07:04:44.599Z,9.35
2024-03-12T07:07:14.798Z,7.50
2024-03-12T07:09:43.639Z,7.18
2024-03-12T07:12:11.216Z,7.50
2024-03-12T07:14:42.839Z,6.95
2024-03-12T07:17:11.243Z,6.03
2024-03-12T07:19:39.486Z,9.55
2024-03-12T07:24:37.914Z,7.82
2024-03-12T07:27:05.889Z,7.72
2024-03-12T07:29:34.592Z,8.65
2024-03-12T07:32:03.333Z,5.78
2024-03-12T07:34:31.562Z,7.80
2024-03-12T07:39:32.795Z,7.00
2024-03-12T07:42:06.218Z,7.00
2024-03-12T07:44:34.446Z,6.70
2024-03-12T07:49:29.768Z,8.48
2024-03-12T07:51:57.394Z,7.95
2024-03-12T07:54:25.266Z,8.55
2024-03-12T07:56:52.833Z,6.60
2024-03-12T07:59:23.803Z,5.70
2024-03-12T08:01:54.361Z,8.45
2024-03-12T08:04:23.211Z,8.00
2024-03-12T08:06:50.991Z,10.02
2024-03-12T08:09:19.546Z,7.53
2024-03-12T08:11:48.606Z,9.48
2024-03-12T08:14:16.996Z,8.05
2024-03-12T08:16:45.905Z,7.32
2024-03-12T08:19:13.998Z,8.30
2024-03-12T08:21:41.794Z,8.52
2024-03-12T08:24:11.991Z,6.82
2024-03-12T08:26:39.886Z,9.30
2024-03-12T08:29:08.535Z,7.55
2024-03-12T08:31:44.847Z,7.55
2024-03-12T08:34:20.360Z,7.38
2024-03-12T08:36:48.304Z,6.07
2024-03-12T08:39:16.697Z,7.70
2024-03-12T08:41:45.313Z,7.82
2024-03-12T08:44:15.306Z,8.27
2024-03-12T08:46:42.951Z,9.48
2024-03-12T08:49:12.772Z,9.23
2024-03-12T08:51:42.725Z,7.72
2024-03-12T08:54:11.140Z,8.25
2024-03-12T08:56:38.712Z,9.90
2024-03-12T08:59:06.943Z,10.98
2024-03-12T09:04:03.386Z,21.23
2024-03-12T09:06:33.561Z,24.25
2024-03-12T09:09:02.670Z,10.50
2024-03-12T09:11:30.411Z,8.05
2024-03-12T09:13:57.982Z,13.57
2024-03-12T09:16:25.540Z,11.55
2024-03-12T09:18:54.730Z,15.55
2024-03-12T09:21:23.779Z,22.45
2024-03-12T09:23:57.156Z,26.98
2024-03-12T09:26:31.284Z,40.17
2024-03-12T09:29:00.894Z,20.95
2024-03-12T09:31:28.991Z,26.98
2024-03-12T09:33:57.821Z,10.95
2024-03-12T09:36:25.767Z,11.85
2024-03-12T09:38:54.605Z,12.45
2024-03-12T09:41:25.354Z,11.30
2024-03-12T09:43:55.777Z,12.07
2024-03-12T09:46:23.688Z,11.57
2024-03-12T09:48:53.486Z,11.57
2024-03-12T09:51:22.072Z,10.57
2024-03-12T09:53:50.140Z,10.27
2024-03-12T09:56:19.032Z,8.48
2024-03-12T09:58:49.457Z,11.27
2024-03-12T10:01:19.779Z,13.05
2024-03-12T10:03:48.261Z,12.20
2024-03-12T10:06:17.703Z,10.23
2024-03-12T10:08:46.146Z,8.95
2024-03-12T10:11:20.980Z,8.77
2024-03-12T10:13:56.882Z,12.07
2024-03-12T10:16:30.029Z,8.82
2024-03-12T10:19:12.422Z,9.68
2024-03-12T10:21:41.961Z,9.93
2024-03-12T10:24:12.268Z,11.38
2024-03-12T10:26:40.304Z,9.23
2024-03-12T10:29:12.592Z,8.82
2024-03-12T10:31:44.822Z,10.85
2024-03-12T10:34:14.890Z,9.90
2024-03-12T10:36:44.268Z,16.55
2024-03-12T10:39:14.390Z,13.77
2024-03-12T10:41:44.274Z,12.32
2024-03-12T10:44:12.891Z,9.82
2024-03-12T10:46:44.937Z,12.25
2024-03-12T10:49:13.887Z,8.93
2024-03-12T10:51:43.998Z,10.25
2024-03-12T10:54:15.236Z,10.10
2024-03-12T10:56:43.469Z,15.93
2024-03-12T10:59:12.196Z,9.57
2024-03-12T11:01:42.781Z,13.90
2024-03-12T11:04:11.753Z,9.85
2024-03-12T11:06:40.760Z,10.35
2024-03-12T11:09:09.771Z,10.23
2024-03-12T11:11:37.892Z,8.27
2024-03-12T11:16:37.110Z,10.85
2024-03-12T11:19:20.215Z,10.20
2024-03-12T11:21:50.655Z,10.98
2024-03-12T11:24:28.382Z,9.95
2024-03-12T11:26:56.676Z,11.93
2024-03-12T11:32:10.793Z,10.32
2024-03-12T11:34:43.543Z,10.30
2024-03-12T11:37:18.109Z,10.88
2024-03-12T11:44:50.047Z,10.93
2024-03-12T11:47:31.771Z,11.93
2024-03-12T11:50:04.735Z,17.60
2024-03-12T11:52:34.439Z,14.02
2024-03-12T11:55:04.832Z,15.45
2024-03-12T11:57:33.288Z,17.75
2024-03-12T12:00:01.205Z,15.65
2024-03-12T12:02:29.181Z,16.92
2024-03-12T12:04:58.930Z,12.05
2024-03-12T12:07:29.034Z,12.82
2024-03-12T12:09:56.872Z,11.43
2024-03-12T12:12:24.500Z,7.60
2024-03-12T12:14:54.136Z,13.75
2024-03-12T12:17:26.781Z,14.77
2024-03-12T12:20:14.859Z,15.10
2024-03-12T12:22:47.010Z,11.18
2024-03-12T12:25:17.099Z,17.33
2024-03-12T12:27:44.984Z,15.55
2024-03-12T12:30:15.677Z,18.30
2024-03-12T12:32:43.504Z,14.43
2024-03-12T12:35:15.063Z,16.73
2024-03-12T12:37:47.081Z,16.83
2024-03-12T12:40:17.892Z,15.80
2024-03-12T12:42:46.855Z,15.98
2024-03-12T12:45:15.705Z,20.17
2024-03-12T12:47:49.959Z,21.05
2024-03-12T12:50:28.544Z,16.83
2024-03-12T12:52:59.138Z,12.70
2024-03-12T12:55:27.324Z,13.50
2024-03-12T13:00:30.142Z,14.07
2024-03-12T13:03:13.188Z,18.02
2024-03-12T13:05:42.461Z,16.73
2024-03-12T13:08:30.778Z,14.48
2024-03-12T13:11:01.857Z,18.40
2024-03-12T13:13:30.055Z,16.70
2024-03-12T13:15:58.197Z,17.45
2024-03-12T13:18:25.736Z,19.58
2024-03-12T13:20:53.917Z,13.10
2024-03-12T13:25:50.267Z,19.58
2024-03-12T13:28:18.831Z,14.80
2024-03-12T13:30:47.696Z,16.50
2024-03-12T13:33:16.280Z,14.10
2024-03-12T13:35:44.812Z,15.23
2024-03-12T13:38:15.296Z,14.02
2024-03-12T13:40:43.035Z,16.65
2024-03-12T13:43:12.508Z,17.40
2024-03-12T13:45:40.895Z,18.95
2024-03-12T13:50:36.330Z,18.42
2024-03-12T13:53:04.372Z,13.80
2024-03-12T13:55:32.017Z,15.20
2024-03-12T13:57:59.689Z,20.20
2024-03-12T14:00:29.009Z,18.65
2024-03-12T14:02:56.781Z,18.52
2024-03-12T14:05:25.810Z,19.85
2024-03-12T14:07:53.594Z,14.40
2024-03-12T14:10:21.475Z,12.98
2024-03-12T14:12:49.097Z,30.13
2024-03-12T14:15:17.174Z,22.40
2024-03-12T14:17:46.085Z,19.40
2024-03-12T14:20:16.498Z,16.67
2024-03-12T14:22:45.347Z,20.48
2024-03-12T14:25:13.982Z,13.27
2024-03-12T14:27:41.798Z,14.43
2024-03-12T14:30:10.529Z,16.73
2024-03-12T14:32:38.368Z,16.48
2024-03-12T14:35:08.406Z,16.83
2024-03-12T14:37:36.383Z,20.95
2024-03-12T14:40:05.980Z,18.48
2024-03-12T14:42:34.106Z,17.60
2024-03-12T14:47:29.694Z,13.45
2024-03-12T14:49:57.265Z,17.63
2024-03-12T14:52:26.720Z,16.80
2024-03-12T14:54:55.045Z,15.35
2024-03-12T14:57:22.737Z,21.00
2024-03-12T14:59:50.430Z,16.77
2024-03-12T15:02:18.617Z,16.10
2024-03-12T15:07:16.844Z,25.77
2024-03-12T15:09:48.567Z,20.65
2024-03-12T15:12:17.513Z,20.27
2024-03-12T15:14:45.134Z,17.73
2024-03-12T15:17:15.394Z,20.02
2024-03-12T15:19:46.275Z,17.75
2024-03-12T15:22:14.096Z,21.00
2024-03-12T15:24:42.208Z,17.33
2024-03-12T15:27:12.372Z,18.08
2024-03-12T15:29:40.116Z,18.52
2024-03-12T15:32:08.288Z,18.48
2024-03-12T15:34:37.416Z,19.73
2024-03-12T15:37:05.408Z,18.60
2024-03-12T15:39:33.192Z,20.60
2024-03-12T15:42:00.795Z,20.50
2024-03-12T15:44:29.685Z,20.35
2024-03-12T15:46:58.384Z,22.80
2024-03-12T15:49:26.032Z,21.67
2024-03-12T15:51:53.684Z,19.85
2024-03-12T15:54:21.592Z,23.77
2024-03-12T15:56:49.651Z,19.90
2024-03-12T15:59:17.270Z,22.17
2024-03-12T16:01:48.719Z,19.75
2024-03-12T16:04:16.890Z,22.83
2024-03-12T16:06:45.876Z,20.85
2024-03-12T16:09:15.523Z,21.50
2024-03-12T16:11:43.109Z,21.55
2024-03-12T16:14:12.024Z,21.23
2024-03-12T16:16:40.692Z,21.33
2024-03-12T16:19:11.262Z,22.38
2024-03-12T16:21:38.948Z,20.45
2024-03-12T16:24:06.961Z,23.05
2024-03-12T16:26:34.678Z,22.15
2024-03-12T16:29:02.690Z,22.70
2024-03-12T16:31:30.227Z,22.02
2024-03-12T16:33:58.046Z,22.63
2024-03-12T16:36:31.155Z,21.27
2024-03-12T16:38:59.544Z,18.20
2024-03-12T16:41:27.417Z,23.60
2024-03-12T16:43:55.743Z,19.67
2024-03-12T16:46:23.394Z,17.73
2024-03-12T16:48:51.005Z,16.90
2024-03-12T16:51:18.608Z,23.05
2024-03-12T16:53:47.718Z,20.90
2024-03-12T16:58:47.144Z,23.27
2024-03-12T17:01:17.000Z,22.35
2024-03-12T17:03:45.205Z,19.73
2024-03-12T17:06:13.979Z,21.48
2024-03-12T17:08:41.970Z,21.75
2024-03-12T17:11:11.597Z,21.90
2024-03-12T17:13:40.116Z,18.35
2024-03-12T17:16:08.865Z,20.30
2024-03-12T17:18:36.636Z,20.52
2024-03-12T17:21:04.685Z,25.08
2024-03-12T17:23:33.728Z,23.70
2024-03-12T17:26:02.590Z,24.65
2024-03-12T17:28:32.334Z,18.42
2024-03-12T17:31:00.489Z,31.48
2024-03-12T17:35:57.009Z,27.20
2024-03-12T17:38:27.072Z,22.08
2024-03-12T17:40:59.625Z,22.17
2024-03-12T17:43:27.978Z,27.52
2024-03-12T17:45:57.911Z,26.30
2024-03-12T17:48:29.073Z,26.58
2024-03-12T17:50:58.529Z,24.42
2024-03-12T17:53:27.850Z,32.00
2024-03-12T17:55:55.930Z,36.05
2024-03-12T17:58:24.824Z,25.13
2024-03-12T18:00:53.288Z,27.42
2024-03-12T18:03:23.966Z,26.05
2024-03-12T18:05:55.246Z,24.23
2024-03-12T18:08:25.349Z,27.15
2024-03-12T18:10:57.544Z,24.17
2024-03-12T18:13:25.671Z,26.33
2024-03-12T18:15:54.733Z,30.65
2024-03-12T18:18:24.132Z,27.85
2024-03-12T18:20:52.454Z,24.52
2024-03-12T18:25:51.179Z,26.17
2024-03-12T18:28:18.942Z,27.70
2024-03-12T18:30:46.575Z,29.98
2024-03-12T18:33:14.330Z,28.92
2024-03-12T18:35:43.767Z,28.90
2024-03-12T18:38:11.576Z,29.83
2024-03-12T18:40:39.302Z,28.25
2024-03-12T18:43:08.661Z,29.88
2024-03-12T18:45:39.944Z,24.05
2024-03-12T18:48:10.248Z,30.73
2024-03-12T18:50:38.671Z,29.35
2024-03-12T18:53:08.510Z,26.45
2024-03-12T18:55:36.702Z,25.80
2024-03-12T18:58:05.198Z,29.33
2024-03-12T19:00:36.731Z,27.77
2024-03-12T19:03:13.324Z,28.20
2024-03-12T19:05:41.701Z,33.33
2024-03-12T19:08:11.852Z,28.33
2024-03-12T19:10:39.948Z,26.63
2024-03-12T19:13:11.057Z,28.63
2024-03-12T19:15:43.844Z,28.90
2024-03-12T19:18:14.567Z,30.20
2024-03-12T19:20:43.012Z,23.10
2024-03-12T19:25:40.352Z,22.50
2024-03-12T19:28:08.774Z,28.77
2024-03-12T19:30:36.849Z,25.38
2024-03-12T19:33:06.311Z,30.67
2024-03-12T19:35:34.278Z,30.85
2024-03-12T19:38:02.404Z,30.23
2024-03-12T19:40:32.186Z,30.45
2024-03-12T19:43:00.524Z,29.50
2024-03-12T19:45:29.303Z,23.30
2024-03-12T19:47:58.163Z,28.73
2024-03-12T19:50:26.764Z,27.73
2024-03-12T19:52:56.510Z,26.77
2024-03-12T19:55:26.897Z,33.33
2024-03-12T19:57:57.197Z,32.53
2024-03-12T20:00:30.363Z,27.02
2024-03-12T20:03:00.188Z,30.05
2024-03-12T20:05:30.985Z,29.77
2024-03-12T20:07:59.932Z,31.52
2024-03-12T20:10:27.500Z,44.05
2024-03-12T20:12:56.974Z,60.00
2024-03-12T20:15:25.022Z,28.88
2024-03-12T20:17:52.826Z,33.72
2024-03-12T20:20:22.426Z,36.30
2024-03-12T20:22:52.035Z,32.83
2024-03-12T20:25:20.688Z,68.00
2024-03-12T20:27:52.780Z,110.90
2024-03-12T20:30:23.172Z,57.85
2024-03-12T20:32:53.081Z,38.83
2024-03-12T20:35:20.793Z,42.97
2024-03-12T20:37:48.994Z,29.80
2024-03-12T20:42:44.618Z,27.05
2024-03-12T20:45:12.429Z,22.83
2024-03-12T20:47:41.873Z,25.23
2024-03-12T20:50:10.327Z,26.90
2024-03-12T20:52:39.328Z,33.00
2024-03-12T20:55:08.348Z,23.45
2024-03-12T20:57:36.743Z,24.77
2024-03-12T21:00:17.376Z,26.90
2024-03-12T21:02:47.203Z,31.75
2024-03-12T21:05:16.080Z,22.60
2024-03-12T21:07:44.461Z,26.83
2024-03-12T21:12:43.140Z,19.83
2024-03-12T21:15:11.104Z,20.30
2024-03-12T21:17:38.867Z,20.38
2024-03-12T21:20:14.033Z,24.70
2024-03-12T21:22:42.893Z,22.65
2024-03-12T21:25:11.330Z,29.70
2024-03-12T21:27:39.086Z,26.58
2024-03-12T21:30:10.222Z,21.42
2024-03-12T21:32:38.821Z,19.75
2024-03-12T21:35:09.367Z,23.13
2024-03-12T21:37:39.249Z,25.17
2024-03-12T21:40:11.886Z,20.63
2024-03-12T21:42:40.013Z,23.70
2024-03-12T21:45:10.722Z,20.95
2024-03-12T21:47:38.933Z,23.20
2024-03-12T21:52:37.751Z,18.75
2024-03-12T21:55:07.443Z,24.98
2024-03-12T21:57:38.598Z,23.25
2024-03-12T22:00:12.198Z,22.50
2024-03-12T22:02:40.229Z,20.15
2024-03-12T22:05:09.509Z,14.93
2024-03-12T22:07:38.225Z,18.55
2024-03-12T22:10:09.005Z,18.60
2024-03-12T22:12:36.879Z,19.13
2024-03-12T22:15:07.982Z,18.48
2024-03-12T22:17:37.316Z,16.52
2024-03-12T22:20:06.523Z,19.50
2024-03-12T22:22:38.339Z,15.88
2024-03-12T22:25:10.272Z,12.73
2024-03-12T22:27:37.966Z,11.32
2024-03-12T22:30:07.883Z,12.45
2024-03-12T22:32:35.491Z,14.35
2024-03-12T22:35:03.113Z,8.75
2024-03-12T22:37:31.856Z,10.32
2024-03-12T22:40:01.273Z,10.45
2024-03-12T22:42:31.247Z,12.90
2024-03-12T22:44:59.412Z,12.50
2024-03-12T22:47:28.646Z,10.85
2024-03-12T22:49:57.001Z,11.70
2024-03-12T22:54:56.316Z,13.02
2024-03-12T22:57:27.755Z,13.40
2024-03-12T22:59:55.672Z,10.93
2024-03-12T23:02:23.567Z,8.32
2024-03-12T23:04:52.341Z,10.38
2024-03-12T23:07:20.702Z,8.85
2024-03-12T23:09:49.205Z,6.15
2024-03-12T23:12:18.161Z,10.85
2024-03-12T23:14:49.898Z,12.15
2024-03-12T23:17:17.461Z,6.43
2024-03-12T23:19:47.048Z,6.72
2024-03-12T23:22:16.583Z,7.88
2024-03-12T23:24:44.808Z,4.13
2024-03-12T23:27:12.460Z,5.88
2024-03-12T23:29:40.303Z,5.40
2024-03-12T23:32:12.600Z,4.68
2024-03-12T23:34:40.142Z,4.95
2024-03-12T23:37:10.050Z,3.30
2024-03-12T23:39:38.347Z,4.68
2024-03-12T23:42:06.193Z,2.78
2024-03-12T23:44:36.704Z,5.03
2024-03-12T23:47:05.560Z,2.80
2024-03-12T23:49:36.537Z,2.75
2024-03-12T23:52:06.063Z,2.95
2024-03-12T23:54:33.667Z,3.33
2024-03-12T23:57:01.658Z,4.80
2024-03-12T23:59:29.407Z,2.95
